sensor_id;sensor_type;location;lat;lon;timestamp;P1;durP1;ratioP1;P2;durP2;ratioP2
61413;SDS011;47279;52.426;10.488;2022-08-25T00:00:18;2.17;;;2.00;;
61413;SDS011;47279;52.426;10.488;2022-08-25T00:02:44;2.67;;;2.10;;
61413;SDS011;47279;52.426;10.488;2022-08-25T00:05:10;2.35;;;2.15;;
61413;SDS011;47279;52.426;10.488;2022-08-25T00:07:36;2.40;;;2.20;;
61413;SDS011;47279;52.426;10.488;2022-08-25T00:10:03;2.40;;;2.20;;
61413;SDS011;47279;52.426;10.488;2022-08-25T00:12:30;2.08;;;1.92;;
61413;SDS011;47279;52.426;10.488;2022-08-25T00:14:56;2.10;;;1.90;;
61413;SDS011;47279;52.426;10.488;2022-08-25T00:17:22;1.92;;;1.83;;
61413;SDS011;47279;52.426;10.488;2022-08-25T00:19:48;2.13;;;1.98;;
61413;SDS011;47279;52.426;10.488;2022-08-25T00:22:13;1.98;;;1.88;;
61413;SDS011;47279;52.426;10.488;2022-08-25T00:24:39;2.15;;;1.95;;
61413;SDS011;47279;52.426;10.488;2022-08-25T00:27:06;2.17;;;1.80;;
61413;SDS011;47279;52.426;10.488;2022-08-25T00:29:32;2.10;;;2.00;;
61413;SDS011;47279;52.426;10.488;2022-08-25T00:31:58;1.98;;;1.85;;
61413;SDS011;47279;52.426;10.488;2022-08-25T00:34:26;2.13;;;1.92;;
61413;SDS011;47279;52.426;10.488;2022-08-25T00:36:53;2.10;;;2.00;;
61413;SDS011;47279;52.426;10.488;2022-08-25T00:39:20;2.10;;;1.90;;
61413;SDS011;47279;52.426;10.488;2022-08-25T00:41:47;2.50;;;2.30;;
61413;SDS011;47279;52.426;10.488;2022-08-25T00:44:13;2.30;;;2.10;;
61413;SDS011;47279;52.426;10.488;2022-08-25T00:46:44;2.13;;;2.00;;
61413;SDS011;47279;52.426;10.488;2022-08-25T00:49:12;2.20;;;2.00;;
61413;SDS011;47279;52.426;10.488;2022-08-25T00:51:41;2.42;;;2.20;;
61413;SDS011;47279;52.426;10.488;2022-08-25T00:54:09;2.63;;;2.42;;
61413;SDS011;47279;52.426;10.488;2022-08-25T00:56:37;2.30;;;2.10;;
61413;SDS011;47279;52.426;10.488;2022-08-25T00:59:03;2.00;;;1.90;;
61413;SDS011;47279;52.426;10.488;2022-08-25T01:01:29;2.00;;;1.90;;
61413;SDS011;47279;52.426;10.488;2022-08-25T01:03:55;1.98;;;1.88;;
61413;SDS011;47279;52.426;10.488;2022-08-25T01:06:22;2.28;;;2.08;;
61413;SDS011;47279;52.426;10.488;2022-08-25T01:08:48;2.30;;;2.10;;
61413;SDS011;47279;52.426;10.488;2022-08-25T01:11:14;2.28;;;2.08;;
61413;SDS011;47279;52.426;10.488;2022-08-25T01:13:44;1.95;;;1.85;;
61413;SDS011;47279;52.426;10.488;2022-08-25T01:16:11;2.53;;;2.33;;
61413;SDS011;47279;52.426;10.488;2022-08-25T01:18:41;2.20;;;2.00;;
61413;SDS011;47279;52.426;10.488;2022-08-25T01:23:33;2.28;;;2.08;;
61413;SDS011;47279;52.426;10.488;2022-08-25T01:26:04;2.40;;;2.20;;
61413;SDS011;47279;52.426;10.488;2022-08-25T01:28:31;2.42;;;2.22;;
61413;SDS011;47279;52.426;10.488;2022-08-25T01:30:57;2.40;;;2.20;;
61413;SDS011;47279;52.426;10.488;2022-08-25T01:33:23;1.88;;;1.77;;
61413;SDS011;47279;52.426;10.488;2022-08-25T01:35:49;2.30;;;2.10;;
61413;SDS011;47279;52.426;10.488;2022-08-25T01:38:15;2.40;;;2.20;;
61413;SDS011;47279;52.426;10.488;2022-08-25T01:40:41;2.20;;;2.00;;
61413;SDS011;47279;52.426;10.488;2022-08-25T01:45:37;2.37;;;2.17;;
61413;SDS011;47279;52.426;10.488;2022-08-25T01:48:04;2.72;;;2.25;;
61413;SDS011;47279;52.426;10.488;2022-08-25T01:50:30;1.98;;;1.88;;
61413;SDS011;47279;52.426;10.488;2022-08-25T01:53:02;2.85;;;2.20;;
61413;SDS011;47279;52.426;10.488;2022-08-25T01:55:29;2.47;;;2.28;;
61413;SDS011;47279;52.426;10.488;2022-08-25T01:58:15;2.58;;;2.08;;
61413;SDS011;47279;52.426;10.488;2022-08-25T02:00:43;2.25;;;2.05;;
61413;SDS011;47279;52.426;10.488;2022-08-25T02:03:09;2.30;;;2.10;;
61413;SDS011;47279;52.426;10.488;2022-08-25T02:05:35;2.83;;;2.08;;
61413;SDS011;47279;52.426;10.488;2022-08-25T02:08:01;2.30;;;2.10;;
61413;SDS011;47279;52.426;10.488;2022-08-25T02:10:27;2.25;;;2.05;;
61413;SDS011;47279;52.426;10.488;2022-08-25T02:12:53;2.20;;;2.00;;
61413;SDS011;47279;52.426;10.488;2022-08-25T02:15:19;2.33;;;2.13;;
61413;SDS011;47279;52.426;10.488;2022-08-25T02:17:45;2.50;;;2.30;;
61413;SDS011;47279;52.426;10.488;2022-08-25T02:20:11;2.58;;;2.38;;
61413;SDS011;47279;52.426;10.488;2022-08-25T02:22:37;2.45;;;2.25;;
61413;SDS011;47279;52.426;10.488;2022-08-25T02:25:03;2.40;;;2.20;;
61413;SDS011;47279;52.426;10.488;2022-08-25T02:27:30;2.42;;;2.22;;
61413;SDS011;47279;52.426;10.488;2022-08-25T02:29:56;2.30;;;2.10;;
61413;SDS011;47279;52.426;10.488;2022-08-25T02:32:22;2.50;;;2.22;;
61413;SDS011;47279;52.426;10.488;2022-08-25T02:34:48;2.35;;;2.10;;
61413;SDS011;47279;52.426;10.488;2022-08-25T02:37:14;2.38;;;2.17;;
61413;SDS011;47279;52.426;10.488;2022-08-25T02:39:40;2.20;;;2.00;;
61413;SDS011;47279;52.426;10.488;2022-08-25T02:42:06;2.22;;;2.05;;
61413;SDS011;47279;52.426;10.488;2022-08-25T02:44:32;2.30;;;2.10;;
61413;SDS011;47279;52.426;10.488;2022-08-25T02:46:58;2.20;;;2.00;;
61413;SDS011;47279;52.426;10.488;2022-08-25T02:49:24;2.50;;;2.30;;
61413;SDS011;47279;52.426;10.488;2022-08-25T02:51:50;2.30;;;2.10;;
61413;SDS011;47279;52.426;10.488;2022-08-25T02:54:16;2.60;;;2.40;;
61413;SDS011;47279;52.426;10.488;2022-08-25T02:56:42;2.33;;;2.10;;
61413;SDS011;47279;52.426;10.488;2022-08-25T02:59:08;2.45;;;2.25;;
61413;SDS011;47279;52.426;10.488;2022-08-25T03:01:34;2.40;;;2.20;;
61413;SDS011;47279;52.426;10.488;2022-08-25T03:04:01;2.58;;;2.38;;
61413;SDS011;47279;52.426;10.488;2022-08-25T03:06:27;2.55;;;2.35;;
61413;SDS011;47279;52.426;10.488;2022-08-25T03:08:53;2.33;;;2.13;;
61413;SDS011;47279;52.426;10.488;2022-08-25T03:11:19;2.65;;;2.45;;
61413;SDS011;47279;52.426;10.488;2022-08-25T03:13:45;2.50;;;2.30;;
61413;SDS011;47279;52.426;10.488;2022-08-25T03:16:14;2.50;;;2.30;;
61413;SDS011;47279;52.426;10.488;2022-08-25T03:18:41;2.53;;;2.33;;
61413;SDS011;47279;52.426;10.488;2022-08-25T03:21:07;2.30;;;2.10;;
61413;SDS011;47279;52.426;10.488;2022-08-25T03:23:33;2.40;;;2.20;;
61413;SDS011;47279;52.426;10.488;2022-08-25T03:25:59;2.47;;;2.08;;
61413;SDS011;47279;52.426;10.488;2022-08-25T03:28:44;2.30;;;2.10;;
61413;SDS011;47279;52.426;10.488;2022-08-25T03:31:10;2.55;;;2.35;;
61413;SDS011;47279;52.426;10.488;2022-08-25T03:33:36;2.33;;;2.13;;
61413;SDS011;47279;52.426;10.488;2022-08-25T03:36:02;2.55;;;2.35;;
61413;SDS011;47279;52.426;10.488;2022-08-25T03:38:29;2.55;;;2.35;;
61413;SDS011;47279;52.426;10.488;2022-08-25T03:40:55;2.50;;;2.30;;
61413;SDS011;47279;52.426;10.488;2022-08-25T03:43:21;2.50;;;2.30;;
61413;SDS011;47279;52.426;10.488;2022-08-25T03:45:47;2.42;;;2.22;;
61413;SDS011;47279;52.426;10.488;2022-08-25T03:48:14;2.75;;;2.55;;
61413;SDS011;47279;52.426;10.488;2022-08-25T03:50:49;2.55;;;2.35;;
61413;SDS011;47279;52.426;10.488;2022-08-25T03:53:16;2.53;;;2.33;;
61413;SDS011;47279;52.426;10.488;2022-08-25T03:55:42;2.75;;;2.55;;
61413;SDS011;47279;52.426;10.488;2022-08-25T03:58:08;2.58;;;2.38;;
61413;SDS011;47279;52.426;10.488;2022-08-25T04:00:35;2.50;;;2.30;;
61413;SDS011;47279;52.426;10.488;2022-08-25T04:03:00;2.63;;;2.42;;
61413;SDS011;47279;52.426;10.488;2022-08-25T04:05:26;2.83;;;2.63;;
61413;SDS011;47279;52.426;10.488;2022-08-25T04:07:52;2.85;;;2.65;;
61413;SDS011;47279;52.426;10.488;2022-08-25T04:10:19;2.53;;;2.33;;
61413;SDS011;47279;52.426;10.488;2022-08-25T04:12:45;2.83;;;2.63;;
61413;SDS011;47279;52.426;10.488;2022-08-25T04:15:13;3.35;;;2.80;;
61413;SDS011;47279;52.426;10.488;2022-08-25T04:17:39;2.47;;;2.28;;
61413;SDS011;47279;52.426;10.488;2022-08-25T04:20:06;2.80;;;2.38;;
61413;SDS011;47279;52.426;10.488;2022-08-25T04:22:32;2.63;;;2.42;;
61413;SDS011;47279;52.426;10.488;2022-08-25T04:24:58;2.75;;;2.55;;
61413;SDS011;47279;52.426;10.488;2022-08-25T04:27:24;2.70;;;2.50;;
61413;SDS011;47279;52.426;10.488;2022-08-25T04:29:50;2.78;;;2.58;;
61413;SDS011;47279;52.426;10.488;2022-08-25T04:32:16;2.70;;;2.50;;
61413;SDS011;47279;52.426;10.488;2022-08-25T04:34:42;3.08;;;2.78;;
61413;SDS011;47279;52.426;10.488;2022-08-25T04:37:08;2.55;;;2.35;;
61413;SDS011;47279;52.426;10.488;2022-08-25T04:39:34;2.72;;;2.53;;
61413;SDS011;47279;52.426;10.488;2022-08-25T04:42:00;2.70;;;2.50;;
61413;SDS011;47279;52.426;10.488;2022-08-25T04:44:27;2.90;;;2.70;;
61413;SDS011;47279;52.426;10.488;2022-08-25T04:46:53;2.90;;;2.65;;
61413;SDS011;47279;52.426;10.488;2022-08-25T04:49:19;2.65;;;2.45;;
61413;SDS011;47279;52.426;10.488;2022-08-25T04:51:45;2.80;;;2.60;;
61413;SDS011;47279;52.426;10.488;2022-08-25T04:54:12;3.28;;;3.03;;
61413;SDS011;47279;52.426;10.488;2022-08-25T04:56:45;2.85;;;2.65;;
61413;SDS011;47279;52.426;10.488;2022-08-25T04:59:13;3.00;;;2.75;;
61413;SDS011;47279;52.426;10.488;2022-08-25T05:01:40;2.80;;;2.60;;
61413;SDS011;47279;52.426;10.488;2022-08-25T05:04:08;2.80;;;2.60;;
61413;SDS011;47279;52.426;10.488;2022-08-25T05:06:34;2.72;;;2.53;;
61413;SDS011;47279;52.426;10.488;2022-08-25T05:09:01;2.92;;;2.72;;
61413;SDS011;47279;52.426;10.488;2022-08-25T05:11:28;2.60;;;2.40;;
61413;SDS011;47279;52.426;10.488;2022-08-25T05:13:56;2.72;;;2.50;;
61413;SDS011;47279;52.426;10.488;2022-08-25T05:16:22;3.10;;;2.85;;
61413;SDS011;47279;52.426;10.488;2022-08-25T05:18:49;3.50;;;3.20;;
61413;SDS011;47279;52.426;10.488;2022-08-25T05:21:16;3.42;;;3.13;;
61413;SDS011;47279;52.426;10.488;2022-08-25T05:23:42;3.50;;;3.20;;
61413;SDS011;47279;52.426;10.488;2022-08-25T05:26:11;3.90;;;3.50;;
61413;SDS011;47279;52.426;10.488;2022-08-25T05:28:38;3.17;;;2.88;;
61413;SDS011;47279;52.426;10.488;2022-08-25T05:31:05;3.63;;;3.33;;
61413;SDS011;47279;52.426;10.488;2022-08-25T05:33:32;3.10;;;2.90;;
61413;SDS011;47279;52.426;10.488;2022-08-25T05:35:59;3.60;;;3.30;;
61413;SDS011;47279;52.426;10.488;2022-08-25T05:38:25;3.38;;;3.13;;
61413;SDS011;47279;52.426;10.488;2022-08-25T05:40:52;3.47;;;3.17;;
61413;SDS011;47279;52.426;10.488;2022-08-25T05:43:18;3.28;;;2.97;;
61413;SDS011;47279;52.426;10.488;2022-08-25T05:45:44;3.70;;;3.40;;
61413;SDS011;47279;52.426;10.488;2022-08-25T05:48:10;3.10;;;2.83;;
61413;SDS011;47279;52.426;10.488;2022-08-25T05:50:36;3.65;;;3.35;;
61413;SDS011;47279;52.426;10.488;2022-08-25T05:53:02;3.63;;;3.33;;
61413;SDS011;47279;52.426;10.488;2022-08-25T05:55:28;3.58;;;3.28;;
61413;SDS011;47279;52.426;10.488;2022-08-25T05:57:54;3.22;;;3.03;;
61413;SDS011;47279;52.426;10.488;2022-08-25T06:00:20;3.42;;;3.10;;
61413;SDS011;47279;52.426;10.488;2022-08-25T06:02:46;2.90;;;2.70;;
61413;SDS011;47279;52.426;10.488;2022-08-25T06:05:17;3.33;;;3.03;;
61413;SDS011;47279;52.426;10.488;2022-08-25T06:07:44;3.50;;;3.20;;
61413;SDS011;47279;52.426;10.488;2022-08-25T06:10:10;3.15;;;2.92;;
61413;SDS011;47279;52.426;10.488;2022-08-25T06:12:38;3.13;;;2.83;;
61413;SDS011;47279;52.426;10.488;2022-08-25T06:15:04;2.90;;;2.70;;
61413;SDS011;47279;52.426;10.488;2022-08-25T06:17:30;3.28;;;2.72;;
61413;SDS011;47279;52.426;10.488;2022-08-25T06:19:56;2.70;;;2.50;;
61413;SDS011;47279;52.426;10.488;2022-08-25T06:22:23;3.13;;;2.83;;
61413;SDS011;47279;52.426;10.488;2022-08-25T06:24:51;2.92;;;2.63;;
61413;SDS011;47279;52.426;10.488;2022-08-25T06:27:17;3.05;;;2.75;;
61413;SDS011;47279;52.426;10.488;2022-08-25T06:29:43;2.88;;;2.60;;
61413;SDS011;47279;52.426;10.488;2022-08-25T06:32:09;2.50;;;2.30;;
61413;SDS011;47279;52.426;10.488;2022-08-25T06:34:35;2.90;;;2.70;;
61413;SDS011;47279;52.426;10.488;2022-08-25T06:37:01;2.85;;;2.65;;
61413;SDS011;47279;52.426;10.488;2022-08-25T06:39:27;2.75;;;2.55;;
61413;SDS011;47279;52.426;10.488;2022-08-25T06:41:54;3.10;;;2.80;;
61413;SDS011;47279;52.426;10.488;2022-08-25T06:44:20;2.70;;;2.50;;
61413;SDS011;47279;52.426;10.488;2022-08-25T06:46:46;2.53;;;2.30;;
61413;SDS011;47279;52.426;10.488;2022-08-25T06:49:12;2.50;;;2.30;;
61413;SDS011;47279;52.426;10.488;2022-08-25T06:51:38;2.53;;;2.33;;
61413;SDS011;47279;52.426;10.488;2022-08-25T06:54:06;3.33;;;3.03;;
61413;SDS011;47279;52.426;10.488;2022-08-25T06:56:33;2.83;;;2.63;;
61413;SDS011;47279;52.426;10.488;2022-08-25T06:59:00;2.90;;;2.60;;
61413;SDS011;47279;52.426;10.488;2022-08-25T07:01:27;2.60;;;2.40;;
61413;SDS011;47279;52.426;10.488;2022-08-25T07:03:54;2.60;;;2.40;;
61413;SDS011;47279;52.426;10.488;2022-08-25T07:06:24;2.53;;;2.33;;
61413;SDS011;47279;52.426;10.488;2022-08-25T07:08:50;2.50;;;2.30;;
61413;SDS011;47279;52.426;10.488;2022-08-25T07:11:16;2.50;;;2.30;;
61413;SDS011;47279;52.426;10.488;2022-08-25T07:13:44;2.65;;;2.45;;
61413;SDS011;47279;52.426;10.488;2022-08-25T07:16:10;2.70;;;2.50;;
61413;SDS011;47279;52.426;10.488;2022-08-25T07:18:37;2.40;;;2.20;;
61413;SDS011;47279;52.426;10.488;2022-08-25T07:21:03;2.30;;;2.10;;
61413;SDS011;47279;52.426;10.488;2022-08-25T07:23:29;2.35;;;2.15;;
61413;SDS011;47279;52.426;10.488;2022-08-25T07:25:55;2.78;;;2.53;;
61413;SDS011;47279;52.426;10.488;2022-08-25T07:28:21;2.60;;;2.40;;
61413;SDS011;47279;52.426;10.488;2022-08-25T07:30:48;2.55;;;2.35;;
61413;SDS011;47279;52.426;10.488;2022-08-25T07:33:15;2.30;;;2.10;;
61413;SDS011;47279;52.426;10.488;2022-08-25T07:35:41;2.60;;;2.40;;
61413;SDS011;47279;52.426;10.488;2022-08-25T07:38:07;2.38;;;2.17;;
61413;SDS011;47279;52.426;10.488;2022-08-25T07:40:35;2.38;;;2.17;;
61413;SDS011;47279;52.426;10.488;2022-08-25T07:43:03;2.38;;;2.17;;
61413;SDS011;47279;52.426;10.488;2022-08-25T07:45:30;2.45;;;2.25;;
61413;SDS011;47279;52.426;10.488;2022-08-25T07:48:01;2.80;;;2.60;;
61413;SDS011;47279;52.426;10.488;2022-08-25T07:50:28;2.60;;;2.40;;
61413;SDS011;47279;52.426;10.488;2022-08-25T07:52:55;2.20;;;2.00;;
61413;SDS011;47279;52.426;10.488;2022-08-25T07:55:24;2.40;;;2.20;;
61413;SDS011;47279;52.426;10.488;2022-08-25T07:57:52;2.28;;;2.08;;
61413;SDS011;47279;52.426;10.488;2022-08-25T08:00:18;2.03;;;1.92;;
61413;SDS011;47279;52.426;10.488;2022-08-25T08:02:44;2.42;;;2.22;;
61413;SDS011;47279;52.426;10.488;2022-08-25T08:05:11;2.33;;;2.13;;
61413;SDS011;47279;52.426;10.488;2022-08-25T08:07:37;2.38;;;2.17;;
61413;SDS011;47279;52.426;10.488;2022-08-25T08:10:04;2.55;;;2.35;;
61413;SDS011;47279;52.426;10.488;2022-08-25T08:12:30;2.63;;;2.20;;
61413;SDS011;47279;52.426;10.488;2022-08-25T08:14:57;2.47;;;2.28;;
61413;SDS011;47279;52.426;10.488;2022-08-25T08:17:23;2.40;;;2.20;;
61413;SDS011;47279;52.426;10.488;2022-08-25T08:19:49;2.25;;;2.05;;
61413;SDS011;47279;52.426;10.488;2022-08-25T08:22:15;2.83;;;2.20;;
61413;SDS011;47279;52.426;10.488;2022-08-25T08:24:42;2.20;;;2.00;;
61413;SDS011;47279;52.426;10.488;2022-08-25T08:27:09;2.13;;;1.95;;
61413;SDS011;47279;52.426;10.488;2022-08-25T08:29:35;2.30;;;2.10;;
61413;SDS011;47279;52.426;10.488;2022-08-25T08:32:02;2.45;;;2.25;;
61413;SDS011;47279;52.426;10.488;2022-08-25T08:34:28;2.60;;;2.40;;
61413;SDS011;47279;52.426;10.488;2022-08-25T08:36:54;2.53;;;2.33;;
61413;SDS011;47279;52.426;10.488;2022-08-25T08:39:20;2.30;;;2.10;;
61413;SDS011;47279;52.426;10.488;2022-08-25T08:44:42;2.47;;;2.28;;
61413;SDS011;47279;52.426;10.488;2022-08-25T08:47:27;2.20;;;2.00;;
61413;SDS011;47279;52.426;10.488;2022-08-25T08:50:03;2.50;;;2.30;;
61413;SDS011;47279;52.426;10.488;2022-08-25T08:52:35;2.10;;;1.90;;
61413;SDS011;47279;52.426;10.488;2022-08-25T08:55:03;2.00;;;1.80;;
61413;SDS011;47279;52.426;10.488;2022-08-25T08:57:33;2.00;;;1.80;;
61413;SDS011;47279;52.426;10.488;2022-08-25T09:00:00;2.03;;;1.80;;
61413;SDS011;47279;52.426;10.488;2022-08-25T09:02:32;2.30;;;2.10;;
61413;SDS011;47279;52.426;10.488;2022-08-25T09:05:03;2.20;;;2.10;;
61413;SDS011;47279;52.426;10.488;2022-08-25T09:07:34;2.25;;;2.05;;
61413;SDS011;47279;52.426;10.488;2022-08-25T09:10:01;2.03;;;1.93;;
61413;SDS011;47279;52.426;10.488;2022-08-25T09:12:48;2.30;;;2.10;;
61413;SDS011;47279;52.426;10.488;2022-08-25T09:15:23;2.30;;;2.10;;
61413;SDS011;47279;52.426;10.488;2022-08-25T09:18:19;5.22;;;2.42;;
61413;SDS011;47279;52.426;10.488;2022-08-25T09:25:44;2.33;;;2.13;;
61413;SDS011;47279;52.426;10.488;2022-08-25T09:30:58;1.80;;;1.70;;
61413;SDS011;47279;52.426;10.488;2022-08-25T09:33:25;2.10;;;1.90;;
61413;SDS011;47279;52.426;10.488;2022-08-25T09:35:52;2.30;;;2.10;;
61413;SDS011;47279;52.426;10.488;2022-08-25T09:38:19;2.08;;;1.95;;
61413;SDS011;47279;52.426;10.488;2022-08-25T09:40:47;1.98;;;1.80;;
61413;SDS011;47279;52.426;10.488;2022-08-25T09:43:28;1.77;;;1.67;;
61413;SDS011;47279;52.426;10.488;2022-08-25T09:48:29;1.65;;;1.55;;
61413;SDS011;47279;52.426;10.488;2022-08-25T09:51:08;1.90;;;1.80;;
61413;SDS011;47279;52.426;10.488;2022-08-25T09:53:35;2.17;;;1.98;;
61413;SDS011;47279;52.426;10.488;2022-08-25T09:56:02;2.30;;;2.10;;
61413;SDS011;47279;52.426;10.488;2022-08-25T09:58:30;2.25;;;2.05;;
61413;SDS011;47279;52.426;10.488;2022-08-25T10:01:00;2.97;;;2.10;;
61413;SDS011;47279;52.426;10.488;2022-08-25T10:03:27;2.75;;;2.08;;
61413;SDS011;47279;52.426;10.488;2022-08-25T10:08:25;2.00;;;1.90;;
61413;SDS011;47279;52.426;10.488;2022-08-25T10:10:55;1.80;;;1.70;;
61413;SDS011;47279;52.426;10.488;2022-08-25T10:13:21;1.88;;;1.73;;
61413;SDS011;47279;52.426;10.488;2022-08-25T10:16:04;2.00;;;1.80;;
61413;SDS011;47279;52.426;10.488;2022-08-25T10:18:30;1.85;;;1.75;;
61413;SDS011;47279;52.426;10.488;2022-08-25T10:21:09;2.17;;;1.98;;
61413;SDS011;47279;52.426;10.488;2022-08-25T10:26:04;2.20;;;2.00;;
61413;SDS011;47279;52.426;10.488;2022-08-25T10:33:38;2.08;;;1.88;;
61413;SDS011;47279;52.426;10.488;2022-08-25T10:39:01;1.80;;;1.70;;
61413;SDS011;47279;52.426;10.488;2022-08-25T10:41:43;2.05;;;1.85;;
61413;SDS011;47279;52.426;10.488;2022-08-25T10:49:40;2.15;;;1.85;;
61413;SDS011;47279;52.426;10.488;2022-08-25T10:52:29;2.10;;;1.90;;
61413;SDS011;47279;52.426;10.488;2022-08-25T10:55:10;2.13;;;1.70;;
61413;SDS011;47279;52.426;10.488;2022-08-25T10:57:44;2.17;;;1.98;;
61413;SDS011;47279;52.426;10.488;2022-08-25T11:00:14;1.75;;;1.65;;
61413;SDS011;47279;52.426;10.488;2022-08-25T11:05:37;1.88;;;1.77;;
61413;SDS011;47279;52.426;10.488;2022-08-25T11:08:06;1.70;;;1.55;;
61413;SDS011;47279;52.426;10.488;2022-08-25T11:10:36;2.22;;;1.90;;
61413;SDS011;47279;52.426;10.488;2022-08-25T11:13:05;2.72;;;1.80;;
61413;SDS011;47279;52.426;10.488;2022-08-25T11:15:37;1.63;;;1.50;;
61413;SDS011;47279;52.426;10.488;2022-08-25T11:18:08;1.60;;;1.50;;
61413;SDS011;47279;52.426;10.488;2022-08-25T11:25:33;2.00;;;1.80;;
61413;SDS011;47279;52.426;10.488;2022-08-25T11:28:10;1.95;;;1.70;;
61413;SDS011;47279;52.426;10.488;2022-08-25T11:30:37;1.77;;;1.67;;
61413;SDS011;47279;52.426;10.488;2022-08-25T11:33:03;2.03;;;1.77;;
61413;SDS011;47279;52.426;10.488;2022-08-25T11:35:31;1.92;;;1.80;;
61413;SDS011;47279;52.426;10.488;2022-08-25T11:40:30;2.17;;;1.60;;
61413;SDS011;47279;52.426;10.488;2022-08-25T11:48:37;1.70;;;1.60;;
61413;SDS011;47279;52.426;10.488;2022-08-25T11:51:06;1.70;;;1.60;;
61413;SDS011;47279;52.426;10.488;2022-08-25T11:56:05;1.63;;;1.52;;
61413;SDS011;47279;52.426;10.488;2022-08-25T11:58:40;1.70;;;1.60;;
61413;SDS011;47279;52.426;10.488;2022-08-25T12:01:11;1.80;;;1.70;;
61413;SDS011;47279;52.426;10.488;2022-08-25T12:06:15;2.15;;;1.80;;
61413;SDS011;47279;52.426;10.488;2022-08-25T12:14:14;1.85;;;1.75;;
61413;SDS011;47279;52.426;10.488;2022-08-25T12:16:58;1.70;;;1.60;;
61413;SDS011;47279;52.426;10.488;2022-08-25T12:21:54;2.08;;;1.88;;
61413;SDS011;47279;52.426;10.488;2022-08-25T12:24:21;1.67;;;1.58;;
61413;SDS011;47279;52.426;10.488;2022-08-25T12:26:57;1.80;;;1.60;;
61413;SDS011;47279;52.426;10.488;2022-08-25T12:29:44;1.80;;;1.70;;
61413;SDS011;47279;52.426;10.488;2022-08-25T12:32:17;1.70;;;1.60;;
61413;SDS011;47279;52.426;10.488;2022-08-25T12:37:27;1.77;;;1.60;;
61413;SDS011;47279;52.426;10.488;2022-08-25T12:39:57;1.83;;;1.73;;
61413;SDS011;47279;52.426;10.488;2022-08-25T12:42:35;1.80;;;1.70;;
61413;SDS011;47279;52.426;10.488;2022-08-25T12:45:10;2.00;;;1.80;;
61413;SDS011;47279;52.426;10.488;2022-08-25T12:47:43;1.70;;;1.60;;
61413;SDS011;47279;52.426;10.488;2022-08-25T12:52:49;1.60;;;1.50;;
61413;SDS011;47279;52.426;10.488;2022-08-25T12:55:16;1.48;;;1.38;;
61413;SDS011;47279;52.426;10.488;2022-08-25T13:00:21;1.70;;;1.60;;
61413;SDS011;47279;52.426;10.488;2022-08-25T13:10:57;1.63;;;1.52;;
61413;SDS011;47279;52.426;10.488;2022-08-25T13:16:05;1.88;;;1.77;;
61413;SDS011;47279;52.426;10.488;2022-08-25T13:18:36;2.03;;;1.73;;
61413;SDS011;47279;52.426;10.488;2022-08-25T13:21:04;1.70;;;1.60;;
61413;SDS011;47279;52.426;10.488;2022-08-25T13:23:33;1.90;;;1.80;;
61413;SDS011;47279;52.426;10.488;2022-08-25T13:25:59;1.90;;;1.80;;
61413;SDS011;47279;52.426;10.488;2022-08-25T13:28:28;1.67;;;1.58;;
61413;SDS011;47279;52.426;10.488;2022-08-25T13:30:55;2.03;;;1.60;;
61413;SDS011;47279;52.426;10.488;2022-08-25T13:33:21;1.70;;;1.60;;
61413;SDS011;47279;52.426;10.488;2022-08-25T13:35:51;1.55;;;1.45;;
61413;SDS011;47279;52.426;10.488;2022-08-25T13:38:38;2.45;;;1.80;;
61413;SDS011;47279;52.426;10.488;2022-08-25T13:41:04;1.70;;;1.60;;
61413;SDS011;47279;52.426;10.488;2022-08-25T13:43:31;2.08;;;1.58;;
61413;SDS011;47279;52.426;10.488;2022-08-25T13:45:57;1.67;;;1.58;;
61413;SDS011;47279;52.426;10.488;2022-08-25T13:49:00;1.90;;;1.70;;
61413;SDS011;47279;52.426;10.488;2022-08-25T13:51:20;1.80;;;1.70;;
61413;SDS011;47279;52.426;10.488;2022-08-25T13:54:05;1.60;;;1.50;;
61413;SDS011;47279;52.426;10.488;2022-08-25T13:56:36;1.80;;;1.70;;
61413;SDS011;47279;52.426;10.488;2022-08-25T13:59:04;1.52;;;1.42;;
61413;SDS011;47279;52.426;10.488;2022-08-25T14:01:33;1.58;;;1.48;;
61413;SDS011;47279;52.426;10.488;2022-08-25T14:06:44;1.60;;;1.50;;
61413;SDS011;47279;52.426;10.488;2022-08-25T14:09:12;1.80;;;1.70;;
61413;SDS011;47279;52.426;10.488;2022-08-25T14:14:08;1.60;;;1.50;;
61413;SDS011;47279;52.426;10.488;2022-08-25T14:16:38;1.73;;;1.63;;
61413;SDS011;47279;52.426;10.488;2022-08-25T14:19:04;1.92;;;1.83;;
61413;SDS011;47279;52.426;10.488;2022-08-25T14:21:31;1.50;;;1.40;;
61413;SDS011;47279;52.426;10.488;2022-08-25T14:23:57;1.60;;;1.50;;
61413;SDS011;47279;52.426;10.488;2022-08-25T14:26:24;1.80;;;1.70;;
61413;SDS011;47279;52.426;10.488;2022-08-25T14:28:50;1.65;;;1.45;;
61413;SDS011;47279;52.426;10.488;2022-08-25T14:31:22;1.65;;;1.55;;
61413;SDS011;47279;52.426;10.488;2022-08-25T14:33:51;2.00;;;1.80;;
61413;SDS011;47279;52.426;10.488;2022-08-25T14:36:18;1.60;;;1.50;;
61413;SDS011;47279;52.426;10.488;2022-08-25T14:38:44;1.70;;;1.60;;
61413;SDS011;47279;52.426;10.488;2022-08-25T14:41:10;1.95;;;1.80;;
61413;SDS011;47279;52.426;10.488;2022-08-25T14:43:36;1.77;;;1.60;;
61413;SDS011;47279;52.426;10.488;2022-08-25T14:46:05;1.55;;;1.45;;
61413;SDS011;47279;52.426;10.488;2022-08-25T14:48:34;1.48;;;1.38;;
61413;SDS011;47279;52.426;10.488;2022-08-25T14:51:02;1.73;;;1.60;;
61413;SDS011;47279;52.426;10.488;2022-08-25T14:53:28;1.70;;;1.60;;
61413;SDS011;47279;52.426;10.488;2022-08-25T14:55:54;1.60;;;1.50;;
61413;SDS011;47279;52.426;10.488;2022-08-25T14:58:20;1.80;;;1.63;;
61413;SDS011;47279;52.426;10.488;2022-08-25T15:00:47;2.03;;;1.52;;
61413;SDS011;47279;52.426;10.488;2022-08-25T15:03:14;1.73;;;1.63;;
61413;SDS011;47279;52.426;10.488;2022-08-25T15:05:40;1.60;;;1.50;;
61413;SDS011;47279;52.426;10.488;2022-08-25T15:08:07;1.63;;;1.52;;
61413;SDS011;47279;52.426;10.488;2022-08-25T15:10:52;1.83;;;1.73;;
61413;SDS011;47279;52.426;10.488;2022-08-25T15:13:18;1.73;;;1.63;;
61413;SDS011;47279;52.426;10.488;2022-08-25T15:15:45;1.85;;;1.67;;
61413;SDS011;47279;52.426;10.488;2022-08-25T15:18:11;2.08;;;1.90;;
61413;SDS011;47279;52.426;10.488;2022-08-25T15:20:37;1.98;;;1.70;;
61413;SDS011;47279;52.426;10.488;2022-08-25T15:23:03;2.00;;;1.90;;
61413;SDS011;47279;52.426;10.488;2022-08-25T15:25:29;1.90;;;1.50;;
61413;SDS011;47279;52.426;10.488;2022-08-25T15:27:55;1.92;;;1.75;;
61413;SDS011;47279;52.426;10.488;2022-08-25T15:30:21;1.85;;;1.75;;
61413;SDS011;47279;52.426;10.488;2022-08-25T15:32:47;1.90;;;1.80;;
61413;SDS011;47279;52.426;10.488;2022-08-25T15:35:13;1.67;;;1.58;;
61413;SDS011;47279;52.426;10.488;2022-08-25T15:37:39;1.67;;;1.58;;
61413;SDS011;47279;52.426;10.488;2022-08-25T15:40:06;2.10;;;1.90;;
61413;SDS011;47279;52.426;10.488;2022-08-25T15:42:32;2.13;;;1.50;;
61413;SDS011;47279;52.426;10.488;2022-08-25T15:44:58;1.90;;;1.80;;
61413;SDS011;47279;52.426;10.488;2022-08-25T15:47:24;1.73;;;1.63;;
61413;SDS011;47279;52.426;10.488;2022-08-25T15:49:52;1.90;;;1.70;;
61413;SDS011;47279;52.426;10.488;2022-08-25T15:52:24;1.98;;;1.77;;
61413;SDS011;47279;52.426;10.488;2022-08-25T15:54:52;1.80;;;1.70;;
61413;SDS011;47279;52.426;10.488;2022-08-25T15:57:18;1.55;;;1.45;;
61413;SDS011;47279;52.426;10.488;2022-08-25T15:59:43;1.70;;;1.60;;
61413;SDS011;47279;52.426;10.488;2022-08-25T16:02:09;1.77;;;1.67;;
61413;SDS011;47279;52.426;10.488;2022-08-25T16:04:35;1.75;;;1.65;;
61413;SDS011;47279;52.426;10.488;2022-08-25T16:07:01;1.98;;;1.77;;